createdAt,value
2023-02-14T00:03:17.630Z,2.70
2023-02-14T00:08:19.036Z,2.77
2023-02-14T00:13:20.453Z,2.56
2023-02-14T00:18:21.968Z,2.47
2023-02-14T00:23:23.396Z,2.53
2023-02-14T00:28:24.831Z,2.59
2023-02-14T00:33:26.343Z,2.55
2023-02-14T00:38:27.773Z,2.53
2023-02-14T00:43:29.457Z,2.48
2023-02-14T00:48:30.905Z,2.47
2023-02-14T00:53:32.365Z,2.52
2023-02-14T00:58:34.118Z,2.61
2023-02-14T01:03:36.139Z,2.69
2023-02-14T01:08:38.073Z,2.69
2023-02-14T01:13:40.605Z,2.60
2023-02-14T01:18:42.652Z,2.51
2023-02-14T01:23:45.271Z,2.58
2023-02-14T01:28:46.928Z,2.58
2023-02-14T01:33:49.759Z,2.63
2023-02-14T01:38:53.469Z,2.37
2023-02-14T01:44:02.305Z,1.92
2023-02-14T01:49:13.116Z,1.89
2023-02-14T01:54:15.008Z,1.91
2023-02-14T01:59:20.822Z,2.03
2023-02-14T02:04:30.427Z,2.15
2023-02-14T02:09:50.662Z,2.24
2023-02-14T02:14:55.418Z,2.26
2023-02-14T02:20:16.765Z,2.33
2023-02-14T02:25:47.423Z,2.30
2023-02-14T02:31:10.030Z,2.22
2023-02-14T02:36:11.448Z,2.24
2023-02-14T02:41:34.001Z,2.18
2023-02-14T02:46:48.348Z,2.16
2023-02-14T02:52:14.729Z,2.07
2023-02-14T02:57:23.708Z,1.98
2023-02-14T03:03:00.758Z,2.07
2023-02-14T03:08:03.898Z,2.08
2023-02-14T03:13:30.838Z,1.88
2023-02-14T03:19:14.413Z,1.61
2023-02-14T03:24:31.546Z,1.58
2023-02-14T03:29:50.483Z,1.34
2023-02-14T03:34:59.241Z,1.00
2023-02-14T03:40:13.295Z,0.86
2023-02-14T03:45:22.571Z,0.88
2023-02-14T03:50:25.475Z,0.88
2023-02-14T03:55:35.186Z,0.83
2023-02-14T04:00:41.043Z,0.89
2023-02-14T04:05:46.765Z,1.00
2023-02-14T04:10:49.059Z,1.10
2023-02-14T04:15:50.563Z,1.12
2023-02-14T04:20:52.153Z,0.92
2023-02-14T04:25:53.601Z,0.89
2023-02-14T04:30:55.377Z,0.91
2023-02-14T04:35:56.951Z,1.08
2023-02-14T04:40:58.605Z,1.10
2023-02-14T04:46:00.216Z,1.04
2023-02-14T04:51:01.872Z,0.99
2023-02-14T04:56:03.511Z,1.10
2023-02-14T05:01:05.025Z,1.21
2023-02-14T05:06:06.540Z,1.24
2023-02-14T05:11:07.988Z,1.23
2023-02-14T05:16:09.525Z,1.27
2023-02-14T05:21:11.566Z,1.23
2023-02-14T05:26:13.016Z,1.30
2023-02-14T05:31:14.694Z,1.06
2023-02-14T05:36:16.302Z,0.82
2023-02-14T05:41:17.987Z,0.82
2023-02-14T05:46:19.392Z,0.89
2023-02-14T05:51:20.798Z,0.97
2023-02-14T05:56:22.192Z,1.04
2023-02-14T06:01:23.647Z,1.10
2023-02-14T06:06:25.137Z,0.96
2023-02-14T06:11:26.558Z,0.92
2023-02-14T06:16:28.056Z,0.99
2023-02-14T06:21:29.538Z,0.92
2023-02-14T06:26:31.159Z,0.54
2023-02-14T06:31:32.820Z,0.48
2023-02-14T06:36:34.946Z,0.37
2023-02-14T06:41:36.854Z,0.43
2023-02-14T06:46:38.268Z,0.52
2023-02-14T06:51:39.728Z,0.62
2023-02-14T06:56:41.168Z,0.67
2023-02-14T07:01:42.851Z,0.78
2023-02-14T07:06:46.340Z,1.04
2023-02-14T07:11:48.104Z,1.06
2023-02-14T07:16:49.623Z,1.19
2023-02-14T07:21:51.151Z,1.18
2023-02-14T07:26:52.758Z,1.25
2023-02-14T07:31:54.531Z,1.04
2023-02-14T07:36:56.115Z,1.10
2023-02-14T07:41:57.611Z,1.16
2023-02-14T07:46:59.255Z,1.22
2023-02-14T07:52:01.054Z,0.98
2023-02-14T07:57:02.943Z,0.72
2023-02-14T08:02:04.492Z,0.86
2023-02-14T08:07:05.954Z,1.12
2023-02-14T08:12:26.163Z,0.99
2023-02-14T08:17:27.677Z,1.18
2023-02-14T08:22:29.162Z,1.35
2023-02-14T08:27:30.593Z,1.14
2023-02-14T08:32:32.318Z,1.05
2023-02-14T08:37:34.224Z,1.04
2023-02-14T08:42:35.813Z,1.24
2023-02-14T08:47:38.605Z,1.32
2023-02-14T08:52:41.613Z,1.31
2023-02-14T08:57:43.025Z,1.23
2023-02-14T09:02:44.541Z,1.32
2023-02-14T09:07:46.138Z,1.26
2023-02-14T09:12:47.691Z,1.56
2023-02-14T09:17:49.329Z,1.84
2023-02-14T09:22:51.071Z,2.05
2023-02-14T09:27:52.988Z,2.18
2023-02-14T09:32:54.589Z,2.15
2023-02-14T09:37:56.124Z,2.26
2023-02-14T09:43:31.152Z,2.41
2023-02-14T09:48:38.376Z,2.43
2023-02-14T09:53:53.744Z,2.49
2023-02-14T09:59:05.062Z,2.63
2023-02-14T10:04:30.181Z,2.64
2023-02-14T10:09:50.502Z,2.79
2023-02-14T10:14:56.158Z,2.81
2023-02-14T10:20:01.260Z,2.90
2023-02-14T10:25:36.670Z,3.14
2023-02-14T10:30:40.449Z,3.24
2023-02-14T10:36:00.644Z,3.32
2023-02-14T10:41:05.240Z,3.37
2023-02-14T10:46:22.351Z,3.34
2023-02-14T10:51:34.056Z,3.42
2023-02-14T10:56:43.379Z,3.72
2023-02-14T11:01:46.010Z,3.83
2023-02-14T11:06:49.340Z,3.95
2023-02-14T11:11:54.538Z,4.03
2023-02-14T11:16:57.776Z,4.21
2023-02-14T11:22:00.477Z,4.31
2023-02-14T11:27:03.617Z,4.72
2023-02-14T11:32:11.063Z,5.06
2023-02-14T11:37:21.735Z,5.06
2023-02-14T11:42:41.760Z,4.85
2023-02-14T11:47:43.299Z,5.10
2023-02-14T11:52:54.084Z,5.30
2023-02-14T11:57:57.653Z,5.50
2023-02-14T12:03:03.428Z,5.59
2023-02-14T12:08:08.172Z,5.49
2023-02-14T12:19:41.226Z,5.67
2023-02-14T12:24:58.647Z,5.52
2023-02-14T12:30:15.681Z,5.51
2023-02-14T12:35:42.169Z,5.73
2023-02-14T12:41:06.778Z,5.83
2023-02-14T12:46:30.935Z,5.58
2023-02-14T12:51:58.688Z,5.09
2023-02-14T12:57:12.705Z,5.41
2023-02-14T13:02:35.968Z,5.76
2023-02-14T13:08:10.247Z,6.24
2023-02-14T13:13:25.864Z,6.45
2023-02-14T13:18:36.211Z,6.34
2023-02-14T13:23:44.274Z,5.67
2023-02-14T13:29:01.918Z,5.70
2023-02-14T13:34:09.092Z,5.86
2023-02-14T13:39:18.344Z,5.72
2023-02-14T13:44:38.665Z,5.70
2023-02-14T13:49:48.927Z,5.59
2023-02-14T13:54:50.517Z,5.43
2023-02-14T14:00:17.041Z,5.56
2023-02-14T14:05:30.840Z,5.73
2023-02-14T14:10:55.484Z,5.59
2023-02-14T14:16:20.620Z,5.51
2023-02-14T14:21:30.787Z,5.50
2023-02-14T14:26:39.968Z,5.71
2023-02-14T14:31:41.825Z,5.72
2023-02-14T14:36:44.003Z,5.76
2023-02-14T14:41:45.475Z,5.88
2023-02-14T14:46:47.133Z,5.82
2023-02-14T14:51:49.142Z,5.92
2023-02-14T14:57:01.883Z,5.96
2023-02-14T15:02:21.813Z,6.04
2023-02-14T15:07:32.752Z,6.03
2023-02-14T15:12:53.763Z,6.08
2023-02-14T15:18:00.907Z,6.15
2023-02-14T15:23:05.275Z,6.18
2023-02-14T15:28:07.251Z,6.20
2023-02-14T15:33:14.538Z,6.21
2023-02-14T15:38:16.391Z,6.13
2023-02-14T15:43:18.384Z,5.81
2023-02-14T15:48:40.392Z,5.55
2023-02-14T15:53:51.218Z,5.32
2023-02-14T15:59:12.346Z,5.06
2023-02-14T16:04:13.991Z,4.86
2023-02-14T16:09:27.556Z,4.63
2023-02-14T16:14:32.391Z,4.45
2023-02-14T16:19:38.914Z,4.27
2023-02-14T16:24:42.045Z,4.02
2023-02-14T16:29:43.568Z,3.86
2023-02-14T16:34:47.455Z,3.73
2023-02-14T16:39:51.587Z,3.57
2023-02-14T16:44:53.561Z,3.44
2023-02-14T16:49:55.279Z,3.33
2023-02-14T16:54:57.304Z,3.18
2023-02-14T16:59:58.959Z,3.12
2023-02-14T17:05:00.511Z,3.06
2023-02-14T17:10:07.426Z,2.96
2023-02-14T17:15:15.169Z,2.89
2023-02-14T17:20:19.326Z,2.84
2023-02-14T17:25:21.072Z,2.78
2023-02-14T17:30:23.095Z,2.70
2023-02-14T17:35:24.603Z,2.66
2023-02-14T17:40:28.030Z,2.56
2023-02-14T17:45:29.653Z,2.44
2023-02-14T17:50:31.221Z,2.37
2023-02-14T17:55:35.693Z,2.31
2023-02-14T18:00:37.184Z,2.25
2023-02-14T18:05:38.647Z,2.16
2023-02-14T18:10:40.080Z,2.14
2023-02-14T18:15:41.501Z,2.12
2023-02-14T18:20:43.250Z,2.08
2023-02-14T18:25:50.420Z,2.04
2023-02-14T18:30:53.109Z,1.97
2023-02-14T18:35:54.572Z,1.92
2023-02-14T18:40:56.021Z,1.85
2023-02-14T18:46:06.121Z,1.73
2023-02-14T18:51:14.127Z,1.54
2023-02-14T18:56:18.660Z,1.52
2023-02-14T19:01:23.390Z,1.65
2023-02-14T19:06:25.805Z,1.72
2023-02-14T19:11:31.416Z,1.88
2023-02-14T19:16:34.059Z,2.04
2023-02-14T19:21:35.633Z,2.17
2023-02-14T19:26:40.606Z,2.25
2023-02-14T19:31:45.101Z,2.25
2023-02-14T19:36:48.045Z,2.29
2023-02-14T19:41:51.240Z,2.38
2023-02-14T19:46:56.671Z,2.54
2023-02-14T19:51:58.901Z,2.64
2023-02-14T19:57:00.311Z,2.73
2023-02-14T20:02:01.872Z,2.65
2023-02-14T20:07:04.860Z,2.65
2023-02-14T20:12:06.815Z,2.70
2023-02-14T20:17:08.291Z,2.73
2023-02-14T20:22:09.749Z,2.71
2023-02-14T20:27:11.970Z,2.65
2023-02-14T20:32:15.862Z,2.69
2023-02-14T20:37:17.864Z,2.70
2023-02-14T20:42:19.555Z,2.76
2023-02-14T20:47:21.119Z,2.74
2023-02-14T20:52:22.779Z,2.76
2023-02-14T20:57:25.309Z,2.78
2023-02-14T21:02:27.340Z,2.71
2023-02-14T21:07:31.244Z,2.72
2023-02-14T21:12:32.750Z,2.82
2023-02-14T21:17:34.214Z,2.88
2023-02-14T21:22:35.611Z,2.91
2023-02-14T21:27:38.282Z,3.02
2023-02-14T21:32:39.806Z,3.04
2023-02-14T21:37:41.431Z,3.01
2023-02-14T21:42:43.823Z,2.99
2023-02-14T21:48:05.495Z,2.98
2023-02-14T21:53:07.691Z,3.00
2023-02-14T21:58:09.111Z,2.96
2023-02-14T22:03:12.330Z,2.91
2023-02-14T22:08:15.413Z,2.85
2023-02-14T22:13:16.845Z,2.79
2023-02-14T22:18:18.812Z,2.76
2023-02-14T22:23:21.112Z,2.78
2023-02-14T22:28:23.105Z,2.81
2023-02-14T22:33:24.578Z,2.82
2023-02-14T22:38:26.657Z,2.86
2023-02-14T22:43:28.732Z,2.91
2023-02-14T22:48:32.412Z,2.89
2023-02-14T22:53:35.117Z,2.82
2023-02-14T22:58:37.067Z,2.76
2023-02-14T23:03:38.580Z,2.75
2023-02-14T23:08:45.601Z,2.79
2023-02-14T23:14:21.151Z,2.72
2023-02-14T23:19:47.328Z,2.73
2023-02-14T23:24:50.330Z,2.75
2023-02-14T23:29:51.879Z,2.74
2023-02-14T23:34:53.876Z,2.77
2023-02-14T23:39:55.582Z,2.82
2023-02-14T23:45:17.444Z,2.80
2023-02-14T23:50:19.168Z,2.82
2023-02-14T23:55:22.258Z,2.67
